Polk Army Air Field
KPOE : now visible

Airfield :











YOU CAN JOIN US ON...

 
LOGIN :

Register | Disclaimer

   EN    FR    IT 

 









Legend :    VFR   Marginal VFR   IFR   Intensive IFR   Very Intensive IFR
Visi :
Ceiling :
>= 8 km
>= 3000ft
5 to 8 km
1000 to 3000 ft
1500m to 5 km
500 to 1000 ft
800 to 1500m
200 to 500 ft
< 800m
< 200 ft
Symbols :   Thunderstorms  Fog  Heavy snow  Heavy precipitations  Wind > 20 kt







- Airport Elevation : 330 ft


KPOE - Polk Army Air Field

CURRENT METAR :
  • 181557Z 33012G20KT 6SM -RA BR FEW008 BKN050 BKN100 18/17 A2973 RMK LTG DSNT NE-SW SLP068 P0019 T01750165

EXPIRED METARs :
  • 181548Z 34012KT 7SM -RA SCT007 SCT060 BKN075 BKN100 17/16 A2973 RMK SLP068
  • 181458Z AUTO 33016G22KT 3/4SM +RA BR VCTS SCT006 OVC048 17/17 A2974 RMK AO2 TSB09E25TSB26E41 SLP071 P0045 60046 T01740166 55004 RVRNO
  • 181441Z AUTO 30012KT 1SM RA BR VCTS BKN006 OVC044 18/17 A2975 RMK AO2 TSB09E25TSB26E41 CIG 006V049 BKN V SCT SLP074 RVRNO
  • 181426Z AUTO 32013KT 7/8SM TSRA BR SCT007 BKN029 OVC046 18/17 A2975 RMK AO2 TSB09E25TSB26 SLP074 RVRNO
  • 181416Z 30015KT 3SM -TSRA SCT006 OVC028 18/17 A2976 RMK TS MOV NE SLP078
  • 181409Z 30013KT 1 1/2SM TSRA BKN006 OVC027 18/17 A2976 RMK PRESRR SLP078
  • 181358Z AUTO 31009KT 6SM -RA BR BKN027 OVC034 18/17 A2974 RMK AO2 LTG DSNT S-W RAB22E40RAB44 SLP071 P0001 T01840173
  • 181344Z AUTO 30008KT 6SM -RA BR FEW011 BKN027 OVC033 19/17 A2974 RMK AO2 LTG DSNT SW RAB22E40RAB44 SLP071
  • 181340Z AUTO 29008KT 4SM BR FEW008 BKN027 BKN033 OVC040 19/18 A2974 RMK AO2 LTG DSNT SW RAB22E40 SLP071

TAF AMD TAF KPOE
Valid from the 18 at 16:00 until the 19 at 22:00 UTC


181642Z 1816/1922 30012KT 6000 -SHRA VCTS OVC040CB QNH2952INS
TEMPO 1816/1820 VRB20G30KT 1600 +TSRA OVC015CB
BECMG 1822/1823 32012G20KT 9999 NSW BKN025 QNH2954INS
BECMG 1901/1902 33012KT 9999 SCT025 BKN050 QNH2962INS
BECMG 1915/1916 33015G25KT 9999 VCSH SCT030 QNH2982INS TX23/1821Z TN10/1908Z
KZHU FIR / North America



MET'MAP, your aeronautical weather chart ! - Copyright ORBIFLY December 2007 - Disclaimer

ORBIFLY MET'MAP TEAM :

Programming & Development : Alexandra Zaïnal
Concept & Development : Baudouin d'Aumeries
Co-Development & Prog : Marc-Olivier Méhu
Technical & hardware support : Manuel Goepfert

Contact : metmap@orbifly.com




SOURCES & CREDITS :

   NOAA       Earth
Advisory